Lauritzen Yacht Harbor
Updated WEATHER every hour; Delta WATER and tide conditions; live TOWER CAM;
The FISHING report with PHOTOGRAPHS; harbor NEWS Items; before you get UNDERWAY ;
OTHER points of interest; WHO are we? WHAT can we provide? WHERE are we?

CRITICAL NEWS REGARING FRANKS TRACK AND LITTLE FRANKS TRACK

24 Hour Weather Archive

                   Temp   Wind   Hum   Dew   Wind                            
   Date    Time    Out   Chill   Out   Pt.  Speed    Hi    Dir   Rain   Bar  
 2/16/19  12:00a  184.6  184.6    --     --   3.0    7.0    SE   0.01  30.190
 2/16/19  12:30a  192.5  192.5    --     --   3.0    8.0   SSE   0.00  30.192
 2/16/19   1:00a  192.7  192.7    --     --   3.0    7.0   SSE   0.00  30.202
 2/16/19   1:30a  192.4  192.4    --     --   3.0    5.0    SE   0.02  30.209
 2/16/19   2:00a  187.0  187.0    --     --   2.0    7.0     S   0.02  30.203
 2/16/19   2:30a  183.7  183.7    --     --   1.0    4.0     S   0.00  30.195
 2/16/19   3:00a  182.2  182.2    --     --   0.0    2.0     S   0.00  30.203
 2/16/19   3:30a  180.0  180.0    --     --   0.0    2.0     S   0.00  30.204
 2/16/19   4:00a  178.1  178.1    --     --   0.0    1.0     S   0.00  30.212
 2/16/19   4:30a  174.9  174.9    --     --   0.0    5.0     S   0.00  30.210
 2/16/19   5:00a  174.5  174.5    --     --   1.0    4.0     S   0.00  30.212
 2/16/19   5:30a  175.4  175.4    --     --   2.0   10.0     S   0.00  30.218
 2/16/19   6:00a  176.4  176.4    --     --   3.0    8.0    SW   0.00  30.233
 2/16/19   6:30a  176.5  176.5    --     --   3.0   10.0   SSW   0.00  30.238
 2/16/19   7:00a  176.6  176.6    --     --   3.0   10.0    SW   0.00  30.255
 2/16/19   7:30a  176.8  176.8    --     --   3.0    9.0    SW   0.00  30.264
 2/16/19   8:00a  176.5  176.5    --     --   5.0   14.0    SW   0.00  30.267
 2/16/19   8:30a  172.9  172.9    --     --   5.0   14.0    SW   0.00  30.259
 2/16/19   9:00a  170.1  170.1    --     --   8.0   21.0    SW   0.00  30.271
 2/16/19   9:30a  158.7  158.7    --     --   7.0   29.0     W   0.00  30.281
 2/16/19  10:00a  151.0  151.0    --     --   7.0   18.0     W   0.00  30.295
 2/16/19  10:30a  139.1  139.1    --     --   8.0   18.0    NW   0.00  30.300
 2/16/19  11:00a  140.8  140.8    --     --   6.0   15.0    SW   0.00  30.288
 2/16/19  11:30a  139.5  139.5    --     --  10.0   26.0   WSW   0.00  30.270
 2/16/19  12:00p  132.1  132.1    --     --  13.0   28.0   WSW   0.00  30.256
 2/16/19  12:30p  124.9  124.9    --     --  13.0   27.0     W   0.00  30.244
 2/16/19   1:00p  120.4  120.4    --     --  12.0   30.0   NNW   0.00  30.232
 2/16/19   1:30p  114.6  114.6    --     --  15.0   30.0    SW   0.00  30.220
 2/16/19   2:00p  113.3  113.3    --     --  12.0   24.0    SW   0.00  30.211
 2/16/19   2:30p   99.3   99.3    --     --  10.0   26.0    NW   0.00  30.204
 2/16/19   3:00p   98.7   98.7    --     --  10.0   23.0    NW   0.00  30.208
 2/16/19   3:30p  109.0  109.0    --     --  13.0   37.0   NNW   0.01  30.213
 2/16/19   4:00p  138.5  138.5    --     --   6.0   16.0    SW   0.00  30.201
 2/16/19   4:30p  146.9  146.9    --     --   5.0   14.0   WSW   0.00  30.195
 2/16/19   5:00p  152.0  152.0    --     --   6.0   19.0   WNW   0.00  30.197
 2/16/19   5:30p  149.6  149.6    --     --   4.0   13.0    SW   0.00  30.183
 2/16/19   6:00p  113.6  113.6    --     --   7.0   14.0    SW   0.00  30.183
 2/16/19   6:30p  102.7  102.7    --     --   8.0   18.0   WSW   0.00  30.189
 2/16/19   7:00p  108.5  108.5    --     --   8.0   19.0    SW   0.00  30.194
 2/16/19   7:30p  101.9  101.9    --     --   7.0   21.0   WSW   0.00  30.201
 2/16/19   8:00p  101.8  101.8    --     --   8.0   20.0   WSW   0.00  30.199
 2/16/19   8:30p  101.7  101.7    --     --  10.0   25.0    NW   0.00  30.189
 2/16/19   9:00p   99.9   99.9    --     --   8.0   23.0   WSW   0.00  30.193
 2/16/19   9:30p   94.8   94.8    --     --  10.0   28.0     W   0.00  30.192
 2/16/19  10:00p   93.2   93.2    --     --   7.0   20.0   WSW   0.00  30.200
 2/16/19  10:30p  102.6  102.6    --     --   7.0   18.0   WSW   0.00  30.202
 2/16/19  11:00p  107.2  107.2    --     --   7.0   22.0     W   0.00  30.211
 2/16/19  11:30p  105.3  105.3    --     --   6.0   16.0     W   0.00  30.204
 2/16/19  12:00p  107.5  107.5    --     --   5.0   14.0     W   0.00  30.204
 2/17/19  12:00a  107.5  107.5    --     --   5.0   14.0     W   0.00  30.204
 2/17/19  12:30a  110.4  110.4    --     --   5.0   14.0   WSW   0.00  30.202
 2/17/19   1:00a  111.7  111.7    --     --   5.0   15.0   WSW   0.00  30.197
 2/17/19   1:30a  107.4  107.4    --     --   4.0   12.0   WSW   0.00  30.195
 2/17/19   2:00a  104.1  104.1    --     --   4.0   12.0    SW   0.00  30.185
 2/17/19   2:30a  105.5  105.5    --     --   2.0    8.0     S   0.00  30.170
 2/17/19   3:00a  103.8  103.8    --     --   2.0    5.0   SSW   0.00  30.146
 2/17/19   3:30a   92.5   92.5    --     --   1.0    3.0   SSE   0.00  30.135
 2/17/19   4:00a  106.6  106.6    --     --   2.0    7.0     S   0.00  30.120
 2/17/19   4:30a  111.9  111.9    --     --   3.0    7.0     S   0.00  30.115
 2/17/19   5:00a  117.5  117.5    --     --   2.0    6.0     S   0.00  30.104
 2/17/19   5:30a  119.3  119.3    --     --   3.0    9.0   SSW   0.00  30.108
 2/17/19   6:00a  118.5  118.5    --     --   5.0   14.0    SW   0.00  30.104
 2/17/19   6:30a  116.6  116.6    --     --   5.0   14.0    SW   0.00  30.095
 2/17/19   7:00a  115.0  115.0    --     --   7.0   20.0     W   0.00  30.102
 2/17/19   7:30a  117.4  117.4    --     --   9.0   21.0    NW   0.00  30.117
 2/17/19   8:00a  121.8  121.8    --     --   8.0   17.0    NW   0.00  30.130
 2/17/19   8:30a  121.5  121.5    --     --   9.0   17.0   WNW   0.00  30.140
 2/17/19   9:00a  121.7  121.7    --     --   8.0   16.0    NW   0.00  30.140
 2/17/19   9:30a  120.3  120.3    --     --   7.0   16.0   WNW   0.00  30.145
 2/17/19  10:00a  117.1  117.1    --     --   8.0   17.0   WNW   0.00  30.146
 2/17/19  10:30a  111.9  111.9    --     --   7.0   15.0    NW   0.00  30.147
 2/17/19  11:00a  104.1  104.1    --     --   8.0   17.0   NNW   0.00  30.144
 2/17/19  11:30a  102.4  102.4    --     --   6.0   12.0   NNW   0.00  30.148
 2/17/19  12:00p   82.7   82.2    --     --   5.0   12.0   WNW   0.00  30.155
 2/17/19  12:30p   53.1   51.0    --     --   5.0   11.0    NW   0.00  30.137
 2/17/19   1:00p   55.4   55.4    --     --   4.0    9.0    NW   0.00  30.128
 2/17/19   1:30p   56.2   56.2    --     --   3.0    9.0     W   0.00  30.112
 2/17/19   2:00p   58.0   58.0    --     --   3.0    7.0   NNW   0.00  30.105
 2/17/19   2:30p   58.4   58.4    --     --   3.0    8.0     N   0.00  30.097
 2/17/19   3:00p   57.0   57.0    --     --   3.0    8.0     N   0.00  30.106
 2/17/19   3:30p   52.5   52.5    --     --   3.0    5.0   NNE   0.00  30.104
 2/17/19   4:00p   67.1   67.1    --     --   3.0   17.0    SW   0.02  30.111
 2/17/19   4:30p  103.2  103.2    --     --   1.0    5.0    SW   0.00  30.111
 2/17/19   5:00p  117.6  117.6    --     --   2.0    7.0   SSE   0.00  30.116
 2/17/19   5:30p  120.4  120.4    --     --   1.0    5.0     S   0.00  30.112
 2/17/19   6:00p  119.5  119.5    --     --   1.0    5.0     S   0.00  30.131
 2/17/19   6:30p  124.3  124.3    --     --   2.0    5.0   WSW   0.00  30.136
 2/17/19   7:00p  131.1  131.1    --     --   1.0    4.0   WSW   0.00  30.154
 2/17/19   7:30p  129.3  129.3    --     --   2.0    5.0   WSW   0.00  30.154
 2/17/19   8:00p  123.8  123.8    --     --   2.0    3.0   WSW   0.00  30.168
 2/17/19   8:30p  111.7  111.7    --     --   2.0    7.0     W   0.00  30.173
 2/17/19   9:00p  112.3  112.3    --     --   4.0   12.0   NNW   0.00  30.181
 2/17/19   9:30p  115.7  115.7    --     --   3.0    8.0   WSW   0.00  30.176
 2/17/19  10:00p  115.1  115.1    --     --   3.0    7.0   WSW   0.00  30.190


Send questions or comments to:
Some of the material in this website is copyrighted © by Lauritzen Yacht Harbor and may not be used by others without our specific permission.
All rights are reserved. iPhone friendly. Viewed best with Mozilla Firefox